sensor_id;sensor_type;location;lat;lon;timestamp;pressure;altitude;pressure_sealevel;temperature;humidity
6038;BME280;3047;42.600;23.470;2023-02-13T00:00:44;94646.16;;;-0.62;100.00
6038;BME280;3047;42.600;23.470;2023-02-13T00:03:12;94682.69;;;-0.37;100.00
6038;BME280;3047;42.600;23.470;2023-02-13T00:05:39;94682.59;;;-0.40;100.00
6038;BME280;3047;42.600;23.470;2023-02-13T00:08:06;94675.78;;;-0.23;100.00
6038;BME280;3047;42.600;23.470;2023-02-13T00:10:40;94680.00;;;-0.21;100.00
6038;BME280;3047;42.600;23.470;2023-02-13T00:13:08;94621.50;;;-0.58;100.00
6038;BME280;3047;42.600;23.470;2023-02-13T00:15:35;94687.81;;;-0.12;100.00
6038;BME280;3047;42.600;23.470;2023-02-13T00:18:02;94593.44;;;-0.57;100.00
6038;BME280;3047;42.600;23.470;2023-02-13T00:20:29;94681.06;;;-0.14;100.00
6038;BME280;3047;42.600;23.470;2023-02-13T00:22:57;94666.31;;;-0.11;100.00
6038;BME280;3047;42.600;23.470;2023-02-13T00:25:24;94672.09;;;-0.11;100.00
6038;BME280;3047;42.600;23.470;2023-02-13T00:27:51;94692.56;;;0.05;100.00
6038;BME280;3047;42.600;23.470;2023-02-13T00:30:20;94683.38;;;0.04;100.00
6038;BME280;3047;42.600;23.470;2023-02-13T00:32:47;94692.41;;;0.24;100.00
6038;BME280;3047;42.600;23.470;2023-02-13T00:35:13;94595.25;;;-0.30;100.00
6038;BME280;3047;42.600;23.470;2023-02-13T00:37:40;94658.75;;;0.08;100.00
6038;BME280;3047;42.600;23.470;2023-02-13T00:40:08;94671.25;;;0.11;100.00
6038;BME280;3047;42.600;23.470;2023-02-13T00:42:35;94700.16;;;0.32;100.00
6038;BME280;3047;42.600;23.470;2023-02-13T00:45:02;94644.41;;;0.01;100.00
6038;BME280;3047;42.600;23.470;2023-02-13T00:47:30;94557.72;;;-0.60;100.00
6038;BME280;3047;42.600;23.470;2023-02-13T00:49:56;94572.91;;;-0.53;100.00
6038;BME280;3047;42.600;23.470;2023-02-13T00:52:23;94673.72;;;0.11;100.00
6038;BME280;3047;42.600;23.470;2023-02-13T00:54:50;94695.41;;;0.38;100.00
6038;BME280;3047;42.600;23.470;2023-02-13T00:57:17;94615.00;;;-0.11;100.00
6038;BME280;3047;42.600;23.470;2023-02-13T00:59:43;94696.97;;;0.36;100.00
6038;BME280;3047;42.600;23.470;2023-02-13T01:02:10;94711.59;;;0.28;100.00
6038;BME280;3047;42.600;23.470;2023-02-13T01:04:38;94687.44;;;0.24;100.00
6038;BME280;3047;42.600;23.470;2023-02-13T01:07:05;94698.78;;;0.40;100.00
6038;BME280;3047;42.600;23.470;2023-02-13T01:09:32;94697.94;;;0.39;100.00
6038;BME280;3047;42.600;23.470;2023-02-13T01:11:59;94693.19;;;0.45;100.00
6038;BME280;3047;42.600;23.470;2023-02-13T01:14:25;94688.31;;;0.48;100.00
6038;BME280;3047;42.600;23.470;2023-02-13T01:16:52;94667.84;;;0.32;100.00
6038;BME280;3047;42.600;23.470;2023-02-13T01:19:19;94686.06;;;0.32;100.00
6038;BME280;3047;42.600;23.470;2023-02-13T01:21:47;94687.00;;;0.34;100.00
6038;BME280;3047;42.600;23.470;2023-02-13T01:24:14;94695.53;;;0.41;100.00
6038;BME280;3047;42.600;23.470;2023-02-13T01:26:40;94697.41;;;0.48;100.00
6038;BME280;3047;42.600;23.470;2023-02-13T01:29:08;94700.09;;;0.30;100.00
6038;BME280;3047;42.600;23.470;2023-02-13T01:31:37;94668.09;;;0.15;100.00
6038;BME280;3047;42.600;23.470;2023-02-13T01:34:04;94626.88;;;-0.02;100.00
6038;BME280;3047;42.600;23.470;2023-02-13T01:36:31;94632.19;;;0.07;100.00
6038;BME280;3047;42.600;23.470;2023-02-13T01:38:59;94701.22;;;0.38;100.00
6038;BME280;3047;42.600;23.470;2023-02-13T01:41:26;94653.81;;;0.10;100.00
6038;BME280;3047;42.600;23.470;2023-02-13T01:43:55;94711.44;;;0.46;100.00
6038;BME280;3047;42.600;23.470;2023-02-13T01:46:26;94716.13;;;0.38;100.00
6038;BME280;3047;42.600;23.470;2023-02-13T01:48:58;94717.22;;;0.22;100.00
6038;BME280;3047;42.600;23.470;2023-02-13T01:51:31;94666.91;;;-0.17;100.00
6038;BME280;3047;42.600;23.470;2023-02-13T01:54:02;94659.31;;;-0.42;100.00
6038;BME280;3047;42.600;23.470;2023-02-13T01:56:32;94706.41;;;-0.23;100.00
6038;BME280;3047;42.600;23.470;2023-02-13T01:59:02;94721.81;;;-0.09;100.00
6038;BME280;3047;42.600;23.470;2023-02-13T02:01:31;94701.66;;;-0.39;100.00
6038;BME280;3047;42.600;23.470;2023-02-13T02:04:03;94712.91;;;-0.04;100.00
6038;BME280;3047;42.600;23.470;2023-02-13T02:06:33;94641.53;;;-0.53;100.00
6038;BME280;3047;42.600;23.470;2023-02-13T02:09:09;94670.38;;;-0.34;100.00
6038;BME280;3047;42.600;23.470;2023-02-13T02:11:42;94721.16;;;-0.05;100.00
6038;BME280;3047;42.600;23.470;2023-02-13T02:14:10;94717.94;;;-0.03;100.00
6038;BME280;3047;42.600;23.470;2023-02-13T02:16:37;94678.94;;;-0.28;100.00
6038;BME280;3047;42.600;23.470;2023-02-13T02:19:07;94598.38;;;-0.79;100.00
6038;BME280;3047;42.600;23.470;2023-02-13T02:21:47;94703.44;;;-0.14;100.00
6038;BME280;3047;42.600;23.470;2023-02-13T02:24:46;94658.09;;;-0.31;100.00
6038;BME280;3047;42.600;23.470;2023-02-13T02:27:55;94633.09;;;-0.36;100.00
6038;BME280;3047;42.600;23.470;2023-02-13T02:33:38;94625.69;;;-0.34;100.00
6038;BME280;3047;42.600;23.470;2023-02-13T02:36:18;94703.22;;;0.24;100.00
6038;BME280;3047;42.600;23.470;2023-02-13T02:38:57;94701.19;;;0.14;100.00
6038;BME280;3047;42.600;23.470;2023-02-13T02:41:30;94709.47;;;0.15;100.00
6038;BME280;3047;42.600;23.470;2023-02-13T02:44:13;94712.13;;;-0.03;100.00
6038;BME280;3047;42.600;23.470;2023-02-13T02:46:56;94721.78;;;-0.11;100.00
6038;BME280;3047;42.600;23.470;2023-02-13T02:49:49;94729.09;;;-0.14;100.00
6038;BME280;3047;42.600;23.470;2023-02-13T02:52:32;94735.19;;;-0.28;100.00
6038;BME280;3047;42.600;23.470;2023-02-13T02:55:09;94739.09;;;-0.33;100.00
6038;BME280;3047;42.600;23.470;2023-02-13T02:57:44;94743.19;;;-0.35;100.00
6038;BME280;3047;42.600;23.470;2023-02-13T03:00:33;94756.94;;;-0.43;100.00
6038;BME280;3047;42.600;23.470;2023-02-13T03:03:19;94751.88;;;-0.45;100.00
6038;BME280;3047;42.600;23.470;2023-02-13T03:06:11;94745.97;;;-0.28;100.00
6038;BME280;3047;42.600;23.470;2023-02-13T03:08:42;94726.34;;;-0.42;100.00
6038;BME280;3047;42.600;23.470;2023-02-13T03:11:28;94699.16;;;-0.39;100.00
6038;BME280;3047;42.600;23.470;2023-02-13T03:14:15;94730.28;;;-0.27;100.00
6038;BME280;3047;42.600;23.470;2023-02-13T03:16:43;94616.59;;;-1.00;100.00
6038;BME280;3047;42.600;23.470;2023-02-13T03:19:37;94729.72;;;-0.19;100.00
6038;BME280;3047;42.600;23.470;2023-02-13T03:22:33;94739.72;;;-0.18;100.00
6038;BME280;3047;42.600;23.470;2023-02-13T03:25:10;94736.03;;;-0.28;100.00
6038;BME280;3047;42.600;23.470;2023-02-13T03:27:45;94728.81;;;-0.21;100.00
6038;BME280;3047;42.600;23.470;2023-02-13T03:30:37;94734.88;;;-0.15;100.00
6038;BME280;3047;42.600;23.470;2023-02-13T03:33:16;94730.44;;;-0.22;100.00
6038;BME280;3047;42.600;23.470;2023-02-13T03:35:49;94739.03;;;-0.14;100.00
6038;BME280;3047;42.600;23.470;2023-02-13T03:38:45;94585.06;;;-1.02;100.00
6038;BME280;3047;42.600;23.470;2023-02-13T03:41:20;94745.03;;;-0.09;100.00
6038;BME280;3047;42.600;23.470;2023-02-13T03:43:55;94744.88;;;0.09;100.00
6038;BME280;3047;42.600;23.470;2023-02-13T03:46:25;94748.94;;;0.07;100.00
6038;BME280;3047;42.600;23.470;2023-02-13T03:48:54;94535.16;;;-1.10;100.00
6038;BME280;3047;42.600;23.470;2023-02-13T03:51:42;94718.91;;;0.01;100.00
6038;BME280;3047;42.600;23.470;2023-02-13T03:54:17;94699.00;;;-0.21;100.00
6038;BME280;3047;42.600;23.470;2023-02-13T03:56:46;94636.66;;;-0.52;100.00
6038;BME280;3047;42.600;23.470;2023-02-13T03:59:35;94736.59;;;0.09;100.00
6038;BME280;3047;42.600;23.470;2023-02-13T04:02:10;94614.22;;;-0.53;100.00
6038;BME280;3047;42.600;23.470;2023-02-13T04:04:44;94725.78;;;-0.14;100.00
6038;BME280;3047;42.600;23.470;2023-02-13T04:07:14;94725.19;;;-0.30;100.00
6038;BME280;3047;42.600;23.470;2023-02-13T04:09:57;94743.09;;;-0.37;100.00
6038;BME280;3047;42.600;23.470;2023-02-13T04:12:32;94742.09;;;-0.42;100.00
6038;BME280;3047;42.600;23.470;2023-02-13T04:15:03;94694.22;;;-0.60;100.00
6038;BME280;3047;42.600;23.470;2023-02-13T04:17:37;94751.44;;;-0.36;100.00
6038;BME280;3047;42.600;23.470;2023-02-13T04:20:07;94643.09;;;-1.39;100.00
6038;BME280;3047;42.600;23.470;2023-02-13T04:22:34;94753.84;;;-0.78;100.00
6038;BME280;3047;42.600;23.470;2023-02-13T04:25:09;94753.94;;;-0.77;100.00
6038;BME280;3047;42.600;23.470;2023-02-13T04:27:36;94732.63;;;-0.92;100.00
6038;BME280;3047;42.600;23.470;2023-02-13T04:30:06;94614.09;;;-1.80;100.00
6038;BME280;3047;42.600;23.470;2023-02-13T04:32:33;94745.13;;;-1.30;100.00
6038;BME280;3047;42.600;23.470;2023-02-13T04:35:00;94723.69;;;-1.28;100.00
6038;BME280;3047;42.600;23.470;2023-02-13T04:37:26;94756.16;;;-1.02;100.00
6038;BME280;3047;42.600;23.470;2023-02-13T04:39:53;94757.28;;;-0.95;100.00
6038;BME280;3047;42.600;23.470;2023-02-13T04:42:21;94758.72;;;-1.01;100.00
6038;BME280;3047;42.600;23.470;2023-02-13T04:44:48;94752.84;;;-1.03;100.00
6038;BME280;3047;42.600;23.470;2023-02-13T04:47:15;94765.31;;;-1.20;100.00
6038;BME280;3047;42.600;23.470;2023-02-13T04:49:41;94754.69;;;-1.37;100.00
6038;BME280;3047;42.600;23.470;2023-02-13T04:52:08;94758.31;;;-1.48;100.00
6038;BME280;3047;42.600;23.470;2023-02-13T04:54:35;94773.66;;;-1.38;100.00
6038;BME280;3047;42.600;23.470;2023-02-13T04:57:02;94765.06;;;-1.27;100.00
6038;BME280;3047;42.600;23.470;2023-02-13T04:59:30;94766.97;;;-1.21;100.00
6038;BME280;3047;42.600;23.470;2023-02-13T05:01:57;94774.41;;;-1.21;100.00
6038;BME280;3047;42.600;23.470;2023-02-13T05:04:24;94745.81;;;-1.32;100.00
6038;BME280;3047;42.600;23.470;2023-02-13T05:06:53;94701.91;;;-1.54;100.00
6038;BME280;3047;42.600;23.470;2023-02-13T05:09:20;94729.91;;;-1.37;100.00
6038;BME280;3047;42.600;23.470;2023-02-13T05:11:46;94771.13;;;-1.01;100.00
6038;BME280;3047;42.600;23.470;2023-02-13T05:14:16;94766.41;;;-0.94;100.00
6038;BME280;3047;42.600;23.470;2023-02-13T05:16:44;94748.41;;;-1.10;100.00
6038;BME280;3047;42.600;23.470;2023-02-13T05:19:11;94755.00;;;-1.10;100.00
6038;BME280;3047;42.600;23.470;2023-02-13T05:21:38;94776.97;;;-0.79;100.00
6038;BME280;3047;42.600;23.470;2023-02-13T05:24:22;94774.63;;;-0.76;100.00
6038;BME280;3047;42.600;23.470;2023-02-13T05:26:49;94773.31;;;-0.68;100.00
6038;BME280;3047;42.600;23.470;2023-02-13T05:29:16;94775.66;;;-0.71;100.00
6038;BME280;3047;42.600;23.470;2023-02-13T05:31:49;94774.84;;;-0.51;100.00
6038;BME280;3047;42.600;23.470;2023-02-13T05:34:17;94763.53;;;-0.65;100.00
6038;BME280;3047;42.600;23.470;2023-02-13T05:36:44;94774.84;;;-0.51;100.00
6038;BME280;3047;42.600;23.470;2023-02-13T05:39:11;94772.50;;;-0.47;100.00
6038;BME280;3047;42.600;23.470;2023-02-13T05:41:38;94779.28;;;-0.43;100.00
6038;BME280;3047;42.600;23.470;2023-02-13T05:44:05;94786.94;;;-0.37;100.00
6038;BME280;3047;42.600;23.470;2023-02-13T05:46:32;94779.09;;;-0.27;100.00
6038;BME280;3047;42.600;23.470;2023-02-13T05:49:00;94762.78;;;-0.41;100.00
6038;BME280;3047;42.600;23.470;2023-02-13T05:51:27;94764.44;;;-0.42;100.00
6038;BME280;3047;42.600;23.470;2023-02-13T05:53:53;94784.94;;;-0.25;100.00
6038;BME280;3047;42.600;23.470;2023-02-13T05:56:20;94787.91;;;-0.13;100.00
6038;BME280;3047;42.600;23.470;2023-02-13T05:58:50;94781.72;;;-0.02;100.00
6038;BME280;3047;42.600;23.470;2023-02-13T06:01:16;94789.53;;;0.08;100.00
6038;BME280;3047;42.600;23.470;2023-02-13T06:03:43;94789.06;;;0.16;100.00
6038;BME280;3047;42.600;23.470;2023-02-13T06:06:11;94792.59;;;0.23;100.00
6038;BME280;3047;42.600;23.470;2023-02-13T06:08:38;94800.91;;;0.23;100.00
6038;BME280;3047;42.600;23.470;2023-02-13T06:11:05;94796.97;;;0.29;100.00
6038;BME280;3047;42.600;23.470;2023-02-13T06:13:32;94795.06;;;0.21;100.00
6038;BME280;3047;42.600;23.470;2023-02-13T06:15:59;94806.72;;;0.24;100.00
6038;BME280;3047;42.600;23.470;2023-02-13T06:18:26;94781.78;;;0.21;100.00
6038;BME280;3047;42.600;23.470;2023-02-13T06:20:52;94807.19;;;0.36;100.00
6038;BME280;3047;42.600;23.470;2023-02-13T06:23:21;94770.03;;;0.17;100.00
6038;BME280;3047;42.600;23.470;2023-02-13T06:25:47;94811.00;;;0.49;100.00
6038;BME280;3047;42.600;23.470;2023-02-13T06:28:14;94810.13;;;0.48;100.00
6038;BME280;3047;42.600;23.470;2023-02-13T06:30:41;94818.56;;;0.52;100.00
6038;BME280;3047;42.600;23.470;2023-02-13T06:33:07;94824.31;;;0.51;100.00
6038;BME280;3047;42.600;23.470;2023-02-13T06:35:34;94817.19;;;0.60;100.00
6038;BME280;3047;42.600;23.470;2023-02-13T06:38:01;94803.03;;;0.58;100.00
6038;BME280;3047;42.600;23.470;2023-02-13T06:40:29;94820.88;;;0.70;100.00
6038;BME280;3047;42.600;23.470;2023-02-13T06:42:56;94822.06;;;0.80;100.00
6038;BME280;3047;42.600;23.470;2023-02-13T06:45:23;94816.88;;;0.73;100.00
6038;BME280;3047;42.600;23.470;2023-02-13T06:47:49;94820.25;;;0.76;100.00
6038;BME280;3047;42.600;23.470;2023-02-13T06:50:17;94821.84;;;0.73;100.00
6038;BME280;3047;42.600;23.470;2023-02-13T06:52:48;94811.63;;;0.66;100.00
6038;BME280;3047;42.600;23.470;2023-02-13T06:55:15;94824.91;;;0.66;100.00
6038;BME280;3047;42.600;23.470;2023-02-13T06:57:44;94788.28;;;0.62;100.00
6038;BME280;3047;42.600;23.470;2023-02-13T07:00:13;94826.31;;;0.82;100.00
6038;BME280;3047;42.600;23.470;2023-02-13T07:02:42;94813.03;;;0.82;100.00
6038;BME280;3047;42.600;23.470;2023-02-13T07:05:09;94813.34;;;0.91;100.00
6038;BME280;3047;42.600;23.470;2023-02-13T07:07:37;94798.19;;;0.85;100.00
6038;BME280;3047;42.600;23.470;2023-02-13T07:10:06;94816.97;;;0.99;100.00
6038;BME280;3047;42.600;23.470;2023-02-13T07:12:33;94784.97;;;0.86;100.00
6038;BME280;3047;42.600;23.470;2023-02-13T07:15:02;94745.94;;;0.61;100.00
6038;BME280;3047;42.600;23.470;2023-02-13T07:17:29;94817.75;;;0.98;100.00
6038;BME280;3047;42.600;23.470;2023-02-13T07:19:56;94822.94;;;1.04;100.00
6038;BME280;3047;42.600;23.470;2023-02-13T07:22:23;94818.13;;;1.09;100.00
6038;BME280;3047;42.600;23.470;2023-02-13T07:24:50;94826.84;;;1.21;100.00
6038;BME280;3047;42.600;23.470;2023-02-13T07:27:17;94818.69;;;1.26;100.00
6038;BME280;3047;42.600;23.470;2023-02-13T07:29:44;94830.25;;;1.23;100.00
6038;BME280;3047;42.600;23.470;2023-02-13T07:32:12;94776.22;;;0.97;100.00
6038;BME280;3047;42.600;23.470;2023-02-13T07:34:38;94833.13;;;1.34;100.00
6038;BME280;3047;42.600;23.470;2023-02-13T07:37:05;94829.59;;;1.29;100.00
6038;BME280;3047;42.600;23.470;2023-02-13T07:39:32;94832.28;;;1.34;100.00
6038;BME280;3047;42.600;23.470;2023-02-13T07:41:58;94838.69;;;1.27;100.00
6038;BME280;3047;42.600;23.470;2023-02-13T07:44:25;94790.28;;;0.95;100.00
6038;BME280;3047;42.600;23.470;2023-02-13T07:46:52;94832.31;;;1.35;100.00
6038;BME280;3047;42.600;23.470;2023-02-13T07:49:20;94830.13;;;1.44;100.00
6038;BME280;3047;42.600;23.470;2023-02-13T07:51:46;94830.56;;;1.57;100.00
6038;BME280;3047;42.600;23.470;2023-02-13T07:54:13;94832.41;;;1.62;100.00
6038;BME280;3047;42.600;23.470;2023-02-13T07:56:40;94842.28;;;1.59;100.00
6038;BME280;3047;42.600;23.470;2023-02-13T07:59:07;94838.72;;;1.53;100.00
6038;BME280;3047;42.600;23.470;2023-02-13T08:01:33;94831.91;;;1.47;100.00
6038;BME280;3047;42.600;23.470;2023-02-13T08:04:00;94830.44;;;1.54;100.00
6038;BME280;3047;42.600;23.470;2023-02-13T08:06:28;94828.56;;;1.46;100.00
6038;BME280;3047;42.600;23.470;2023-02-13T08:08:55;94811.13;;;1.46;100.00
6038;BME280;3047;42.600;23.470;2023-02-13T08:11:35;94827.59;;;1.67;100.00
6038;BME280;3047;42.600;23.470;2023-02-13T08:14:21;94813.63;;;1.72;100.00
6038;BME280;3047;42.600;23.470;2023-02-13T08:16:48;94825.50;;;1.79;100.00
6038;BME280;3047;42.600;23.470;2023-02-13T08:19:15;94829.81;;;1.85;100.00
6038;BME280;3047;42.600;23.470;2023-02-13T08:21:43;94830.91;;;1.93;100.00
6038;BME280;3047;42.600;23.470;2023-02-13T08:24:11;94830.22;;;1.97;100.00
6038;BME280;3047;42.600;23.470;2023-02-13T08:26:38;94835.19;;;1.97;100.00
6038;BME280;3047;42.600;23.470;2023-02-13T08:29:06;94801.03;;;1.67;100.00
6038;BME280;3047;42.600;23.470;2023-02-13T08:31:33;94816.94;;;1.71;100.00
6038;BME280;3047;42.600;23.470;2023-02-13T08:34:00;94828.59;;;1.72;100.00
6038;BME280;3047;42.600;23.470;2023-02-13T08:36:26;94791.06;;;1.67;100.00
6038;BME280;3047;42.600;23.470;2023-02-13T08:38:54;94829.00;;;1.86;100.00
6038;BME280;3047;42.600;23.470;2023-02-13T08:41:21;94808.28;;;1.61;100.00
6038;BME280;3047;42.600;23.470;2023-02-13T08:43:48;94815.22;;;1.70;100.00
6038;BME280;3047;42.600;23.470;2023-02-13T08:46:16;94839.31;;;1.95;100.00
6038;BME280;3047;42.600;23.470;2023-02-13T08:48:43;94835.72;;;1.87;100.00
6038;BME280;3047;42.600;23.470;2023-02-13T08:51:11;94800.88;;;1.63;100.00
6038;BME280;3047;42.600;23.470;2023-02-13T08:53:38;94843.31;;;1.66;100.00
6038;BME280;3047;42.600;23.470;2023-02-13T08:56:06;94832.88;;;1.76;100.00
6038;BME280;3047;42.600;23.470;2023-02-13T08:58:33;94838.72;;;1.78;100.00
6038;BME280;3047;42.600;23.470;2023-02-13T09:01:03;94785.84;;;1.60;100.00
6038;BME280;3047;42.600;23.470;2023-02-13T09:03:30;94820.66;;;1.84;100.00
6038;BME280;3047;42.600;23.470;2023-02-13T09:05:58;94831.19;;;2.02;100.00
6038;BME280;3047;42.600;23.470;2023-02-13T09:08:25;94805.75;;;1.85;100.00
6038;BME280;3047;42.600;23.470;2023-02-13T09:10:55;94833.63;;;1.99;100.00
6038;BME280;3047;42.600;23.470;2023-02-13T09:13:23;94800.34;;;1.71;100.00
6038;BME280;3047;42.600;23.470;2023-02-13T09:15:50;94806.44;;;1.81;100.00
6038;BME280;3047;42.600;23.470;2023-02-13T09:18:17;94832.22;;;2.07;100.00
6038;BME280;3047;42.600;23.470;2023-02-13T09:20:44;94833.59;;;2.25;100.00
6038;BME280;3047;42.600;23.470;2023-02-13T09:23:10;94813.63;;;2.25;100.00
6038;BME280;3047;42.600;23.470;2023-02-13T09:25:37;94820.09;;;2.46;100.00
6038;BME280;3047;42.600;23.470;2023-02-13T09:28:04;94783.25;;;2.36;100.00
6038;BME280;3047;42.600;23.470;2023-02-13T09:30:32;94820.06;;;2.72;98.17
6038;BME280;3047;42.600;23.470;2023-02-13T09:32:59;94824.25;;;2.73;99.74
6038;BME280;3047;42.600;23.470;2023-02-13T09:35:25;94822.63;;;2.75;99.75
6038;BME280;3047;42.600;23.470;2023-02-13T09:37:53;94781.56;;;2.64;99.91
6038;BME280;3047;42.600;23.470;2023-02-13T09:40:24;94809.72;;;2.88;98.38
6038;BME280;3047;42.600;23.470;2023-02-13T09:42:52;94806.84;;;3.05;98.02
6038;BME280;3047;42.600;23.470;2023-02-13T09:45:26;94808.75;;;3.15;98.32
6038;BME280;3047;42.600;23.470;2023-02-13T09:47:54;94801.38;;;3.18;97.94
6038;BME280;3047;42.600;23.470;2023-02-13T09:50:24;94804.88;;;3.25;96.71
6038;BME280;3047;42.600;23.470;2023-02-13T09:52:53;94801.41;;;3.19;96.50
6038;BME280;3047;42.600;23.470;2023-02-13T09:55:24;94804.06;;;3.26;95.60
6038;BME280;3047;42.600;23.470;2023-02-13T09:57:57;94803.34;;;3.00;97.58
6038;BME280;3047;42.600;23.470;2023-02-13T10:00:31;94788.69;;;2.80;99.14
6038;BME280;3047;42.600;23.470;2023-02-13T10:03:13;94794.34;;;3.05;98.56
6038;BME280;3047;42.600;23.470;2023-02-13T10:05:49;94794.63;;;3.15;98.00
6038;BME280;3047;42.600;23.470;2023-02-13T10:08:33;94777.59;;;3.01;97.33
6038;BME280;3047;42.600;23.470;2023-02-13T10:11:15;94797.84;;;3.11;97.66
6038;BME280;3047;42.600;23.470;2023-02-13T10:13:59;94796.53;;;3.24;94.76
6038;BME280;3047;42.600;23.470;2023-02-13T10:16:29;94744.59;;;2.81;95.48
6038;BME280;3047;42.600;23.470;2023-02-13T10:19:03;94751.72;;;2.97;95.33
6038;BME280;3047;42.600;23.470;2023-02-13T10:21:34;94786.19;;;3.12;96.83
6038;BME280;3047;42.600;23.470;2023-02-13T10:24:05;94782.88;;;3.11;97.23
6038;BME280;3047;42.600;23.470;2023-02-13T10:26:34;94768.94;;;3.19;94.95
6038;BME280;3047;42.600;23.470;2023-02-13T10:29:14;94769.13;;;3.26;95.80
6038;BME280;3047;42.600;23.470;2023-02-13T10:32:06;94764.94;;;3.25;95.82
6038;BME280;3047;42.600;23.470;2023-02-13T10:34:40;94762.78;;;3.38;94.45
6038;BME280;3047;42.600;23.470;2023-02-13T10:37:12;94763.53;;;3.36;95.11
6038;BME280;3047;42.600;23.470;2023-02-13T10:39:42;94718.75;;;3.10;95.30
6038;BME280;3047;42.600;23.470;2023-02-13T10:42:17;94746.19;;;3.40;92.94
6038;BME280;3047;42.600;23.470;2023-02-13T10:44:53;94745.41;;;3.43;94.21
6038;BME280;3047;42.600;23.470;2023-02-13T10:47:36;94725.41;;;3.41;94.59
6038;BME280;3047;42.600;23.470;2023-02-13T10:50:16;94718.78;;;3.43;94.08
6038;BME280;3047;42.600;23.470;2023-02-13T10:52:51;94729.00;;;3.53;94.06
6038;BME280;3047;42.600;23.470;2023-02-13T10:55:42;94733.56;;;3.69;92.45
6038;BME280;3047;42.600;23.470;2023-02-13T10:58:14;94733.81;;;3.80;93.23
6038;BME280;3047;42.600;23.470;2023-02-13T11:00:46;94721.59;;;3.92;92.57
6038;BME280;3047;42.600;23.470;2023-02-13T11:03:18;94720.16;;;4.02;91.40
6038;BME280;3047;42.600;23.470;2023-02-13T11:05:48;94720.19;;;4.03;94.43
6038;BME280;3047;42.600;23.470;2023-02-13T11:08:19;94720.44;;;4.14;93.36
6038;BME280;3047;42.600;23.470;2023-02-13T11:10:46;94717.84;;;4.49;92.93
6038;BME280;3047;42.600;23.470;2023-02-13T11:13:15;94705.78;;;4.70;92.74
6038;BME280;3047;42.600;23.470;2023-02-13T11:15:55;94707.34;;;5.10;86.86
6038;BME280;3047;42.600;23.470;2023-02-13T11:18:25;94703.56;;;5.31;87.99
6038;BME280;3047;42.600;23.470;2023-02-13T11:21:06;94705.75;;;5.61;84.18
6038;BME280;3047;42.600;23.470;2023-02-13T11:23:37;94702.66;;;5.79;84.10
6038;BME280;3047;42.600;23.470;2023-02-13T11:26:07;94697.16;;;5.97;81.64
6038;BME280;3047;42.600;23.470;2023-02-13T11:28:37;94687.34;;;6.15;80.64
6038;BME280;3047;42.600;23.470;2023-02-13T11:31:11;94638.53;;;5.91;80.34
6038;BME280;3047;42.600;23.470;2023-02-13T11:33:39;94680.09;;;6.33;80.32
6038;BME280;3047;42.600;23.470;2023-02-13T11:36:09;94676.09;;;6.48;78.91
6038;BME280;3047;42.600;23.470;2023-02-13T11:38:39;94663.69;;;6.58;77.10
6038;BME280;3047;42.600;23.470;2023-02-13T11:41:08;94648.53;;;6.52;78.78
6038;BME280;3047;42.600;23.470;2023-02-13T11:43:42;94669.53;;;6.59;79.47
6038;BME280;3047;42.600;23.470;2023-02-13T11:46:16;94643.50;;;6.49;77.24
6038;BME280;3047;42.600;23.470;2023-02-13T11:48:55;94640.16;;;6.52;77.75
6038;BME280;3047;42.600;23.470;2023-02-13T11:51:38;94658.88;;;6.77;77.95
6038;BME280;3047;42.600;23.470;2023-02-13T11:54:05;94649.81;;;6.92;76.24
6038;BME280;3047;42.600;23.470;2023-02-13T11:56:49;94617.06;;;6.82;77.19
6038;BME280;3047;42.600;23.470;2023-02-13T11:59:16;94638.25;;;7.07;77.36
6038;BME280;3047;42.600;23.470;2023-02-13T12:01:43;94621.53;;;7.10;75.98
6038;BME280;3047;42.600;23.470;2023-02-13T12:04:15;94613.16;;;7.10;73.86
6038;BME280;3047;42.600;23.470;2023-02-13T12:06:57;94627.47;;;7.18;72.83
6038;BME280;3047;42.600;23.470;2023-02-13T12:09:25;94624.16;;;7.21;74.71
6038;BME280;3047;42.600;23.470;2023-02-13T12:11:54;94609.72;;;7.02;75.29
6038;BME280;3047;42.600;23.470;2023-02-13T12:14:24;94627.44;;;7.14;73.58
6038;BME280;3047;42.600;23.470;2023-02-13T12:16:54;94624.06;;;7.10;76.33
6038;BME280;3047;42.600;23.470;2023-02-13T12:19:27;94622.38;;;7.11;73.92
6038;BME280;3047;42.600;23.470;2023-02-13T12:22:20;94618.25;;;7.17;73.88
6038;BME280;3047;42.600;23.470;2023-02-13T12:25:18;94614.19;;;7.32;73.08
6038;BME280;3047;42.600;23.470;2023-02-13T12:27:59;94588.94;;;7.19;71.95
6038;BME280;3047;42.600;23.470;2023-02-13T12:30:58;94605.81;;;7.33;73.62
6038;BME280;3047;42.600;23.470;2023-02-13T12:33:41;94592.34;;;7.23;75.00
6038;BME280;3047;42.600;23.470;2023-02-13T12:36:13;94609.16;;;7.30;74.63
6038;BME280;3047;42.600;23.470;2023-02-13T12:38:56;94610.00;;;7.29;74.92
6038;BME280;3047;42.600;23.470;2023-02-13T12:41:32;94606.72;;;7.39;73.93
6038;BME280;3047;42.600;23.470;2023-02-13T12:44:27;94600.91;;;7.47;75.29
6038;BME280;3047;42.600;23.470;2023-02-13T12:47:09;94547.00;;;7.11;73.70
6038;BME280;3047;42.600;23.470;2023-02-13T12:50:05;94590.84;;;7.47;72.96
6038;BME280;3047;42.600;23.470;2023-02-13T12:52:46;94585.78;;;7.45;71.16
6038;BME280;3047;42.600;23.470;2023-02-13T12:55:31;94590.84;;;7.47;70.47
6038;BME280;3047;42.600;23.470;2023-02-13T12:58:14;94585.84;;;7.53;72.63
6038;BME280;3047;42.600;23.470;2023-02-13T13:00:53;94588.38;;;7.53;72.29
6038;BME280;3047;42.600;23.470;2023-02-13T13:03:42;94588.31;;;7.42;73.22
6038;BME280;3047;42.600;23.470;2023-02-13T13:06:37;94586.69;;;7.52;69.63
6038;BME280;3047;42.600;23.470;2023-02-13T13:09:23;94569.81;;;7.34;70.85
6038;BME280;3047;42.600;23.470;2023-02-13T13:12:14;94581.63;;;7.46;69.86
6038;BME280;3047;42.600;23.470;2023-02-13T13:14:51;94577.34;;;7.34;69.29
6038;BME280;3047;42.600;23.470;2023-02-13T13:17:28;94563.00;;;7.22;70.32
6038;BME280;3047;42.600;23.470;2023-02-13T13:20:05;94557.91;;;7.16;70.51
6038;BME280;3047;42.600;23.470;2023-02-13T13:22:44;94557.00;;;7.08;69.43
6038;BME280;3047;42.600;23.470;2023-02-13T13:25:20;94558.69;;;7.07;67.48
6038;BME280;3047;42.600;23.470;2023-02-13T13:27:52;94551.00;;;6.92;67.12
6038;BME280;3047;42.600;23.470;2023-02-13T13:30:24;94545.88;;;6.80;68.81
6038;BME280;3047;42.600;23.470;2023-02-13T13:32:55;94550.03;;;6.75;69.38
6038;BME280;3047;42.600;23.470;2023-02-13T13:35:26;94540.75;;;6.67;69.51
6038;BME280;3047;42.600;23.470;2023-02-13T13:37:59;94544.03;;;6.63;69.88